Time;durP1;ratioP1;P1;durP2;ratioP2;P2;SDS_P1;SDS_P2;PMS_P1;PMS_P2;Temp;Humidity;BMP_temperature;BMP_pressure;BME280_temperature;BME280_humidity;BME280_pressure;Samples;Min_cycle;Max_cycle;Signal;HPM_P1;HPM_P2
2021/04/07 00:00:34;;;;;;;;;18.50;12.75;;;;;-0.11;72.23;98719.34;3554820;40;9228;-59
2021/04/07 00:03:02;;;;;;;;;17.50;15.50;;;;;0.01;72.08;98721.56;3555303;40;9464;-60
2021/04/07 00:05:40;;;;;;;;;22.25;15.00;;;;;0.08;71.67;98707.25;3557038;40;9291;-60
2021/04/07 00:08:08;;;;;;;;;15.00;13.00;;;;;-0.09;72.71;98706.97;3555812;40;9274;-60
2021/04/07 00:10:42;;;;;;;;;17.50;12.00;;;;;-0.05;72.81;98708.59;3551123;40;9373;-60
2021/04/07 00:13:13;;;;;;;;;21.75;16.00;;;;;-0.09;72.30;98706.97;3555077;40;9843;-59
2021/04/07 00:15:41;;;;;;;;;15.00;12.50;;;;;0.03;71.57;98711.84;3556761;40;9255;-60
2021/04/07 00:18:09;;;;;;;;;18.00;10.00;;;;;-0.02;71.83;98709.34;3556670;40;9257;-60
2021/04/07 00:20:37;;;;;;;;;16.00;9.75;;;;;-0.11;71.94;98714.91;3552044;40;9285;-60
2021/04/07 00:23:05;;;;;;;;;17.25;12.00;;;;;-0.18;71.65;98705.50;3555245;40;9794;-60
2021/04/07 00:25:33;;;;;;;;;12.50;10.50;;;;;-0.26;72.02;98705.78;3556216;40;9235;-60
2021/04/07 00:28:06;;;;;;;;;8.50;7.50;;;;;-0.20;71.25;98698.56;3557203;40;9302;-60
2021/04/07 00:30:37;;;;;;;;;14.50;10.00;;;;;-0.56;72.10;98701.50;3556368;40;9251;-61
2021/04/07 00:33:05;;;;;;;;;15.00;10.00;;;;;-0.29;72.20;98700.59;3556373;40;9330;-60
2021/04/07 00:35:32;;;;;;;;;10.00;8.50;;;;;-0.17;71.41;98698.44;3556459;40;9244;-59
2021/04/07 00:37:59;;;;;;;;;15.25;10.50;;;;;-0.17;71.97;98698.44;3555554;40;9259;-59
2021/04/07 00:40:27;;;;;;;;;12.25;10.00;;;;;-0.26;72.10;98695.22;3556430;40;9309;-60
2021/04/07 00:42:55;;;;;;;;;12.75;12.00;;;;;-0.29;72.25;98697.06;3556446;40;9277;-61
2021/04/07 00:45:23;;;;;;;;;12.75;6.00;;;;;-0.08;71.46;98700.75;3556920;40;9457;-60
2021/04/07 00:47:51;;;;;;;;;11.00;8.50;;;;;-0.17;70.75;98694.03;3546543;40;9527;-60
2021/04/07 00:50:22;;;;;;;;;10.50;7.00;;;;;-0.52;71.59;98682.91;3546886;40;9243;-60
2021/04/07 00:52:51;;;;;;;;;15.25;10.00;;;;;-0.09;71.65;98691.13;3553028;40;9370;-60
2021/04/07 00:55:22;;;;;;;;;15.00;11.00;;;;;-0.33;71.18;98683.13;3551772;40;9435;-60
2021/04/07 00:57:50;;;;;;;;;12.25;10.00;;;;;-0.03;70.35;98685.63;3551619;40;9243;-60
2021/04/07 01:00:19;;;;;;;;;9.50;9.50;;;;;-0.35;71.98;98684.97;3551430;40;9236;-60
2021/04/07 01:02:52;;;;;;;;;7.00;7.00;;;;;-0.26;71.81;98694.38;3555167;40;9295;-60
2021/04/07 01:05:19;;;;;;;;;12.50;9.00;;;;;-0.28;71.09;98691.75;3547021;40;9265;-60
2021/04/07 01:07:47;;;;;;;;;12.75;8.50;;;;;-0.32;72.01;98697.19;3554879;40;9255;-60
2021/04/07 01:10:14;;;;;;;;;13.00;10.50;;;;;-0.28;71.34;98689.13;3555520;40;9288;-60
2021/04/07 01:12:43;;;;;;;;;12.75;9.50;;;;;-0.43;72.78;98689.63;3551813;40;9267;-60
2021/04/07 01:15:13;;;;;;;;;10.75;9.50;;;;;-0.46;71.59;98689.75;3552653;40;9258;-60
2021/04/07 01:17:42;;;;;;;;;12.00;9.00;;;;;-0.60;72.58;98691.97;3546039;40;9278;-60
2021/04/07 01:20:18;;;;;;;;;12.50;10.00;;;;;-0.28;72.00;98694.41;3547400;40;9220;-60
2021/04/07 01:22:51;;;;;;;;;16.00;9.00;;;;;-0.52;72.62;98687.31;3556616;40;9282;-60
2021/04/07 01:25:18;;;;;;;;;12.25;12.00;;;;;-0.51;72.49;98699.56;3554959;40;9482;-60
2021/04/07 01:27:46;;;;;;;;;15.75;8.50;;;;;-0.48;71.92;98697.69;3554387;40;9271;-60
2021/04/07 01:30:17;;;;;;;;;15.50;9.75;;;;;-0.52;72.53;98695.22;3548515;40;9255;-60
2021/04/07 01:32:44;;;;;;;;;12.00;10.50;;;;;-0.52;71.65;98697.88;3556160;40;9379;-60
2021/04/07 01:35:17;;;;;;;;;15.00;12.50;;;;;-0.43;72.22;98704.59;3556225;40;9301;-62
2021/04/07 01:37:45;;;;;;;;;15.00;9.00;;;;;-0.44;71.48;98690.56;3555601;40;9341;-60
2021/04/07 01:40:15;;;;;;;;;13.00;7.50;;;;;-0.40;73.29;98700.06;3550004;40;9258;-60
2021/04/07 01:42:45;;;;;;;;;19.00;12.00;;;;;-0.62;71.99;98696.44;3551445;40;9271;-60
2021/04/07 01:45:14;;;;;;;;;9.50;8.00;;;;;-0.68;72.84;98695.72;3554683;40;9952;-60
2021/04/07 01:47:41;;;;;;;;;16.50;13.50;;;;;-0.77;73.03;98697.78;3556529;40;9421;-60
2021/04/07 01:50:09;;;;;;;;;17.25;14.00;;;;;-0.87;73.67;98694.56;3551306;40;9242;-61
2021/04/07 01:52:36;;;;;;;;;10.00;8.50;;;;;-0.67;72.42;98697.44;3555920;40;9239;-61
2021/04/07 01:55:04;;;;;;;;;14.00;10.00;;;;;-0.62;72.27;98706.97;3556400;40;9243;-60
2021/04/07 01:57:31;;;;;;;;;15.00;13.00;;;;;-0.65;72.59;98707.06;3556389;40;9228;-60
2021/04/07 01:59:58;;;;;;;;;11.75;9.25;;;;;-0.28;71.31;98712.88;3551788;40;9364;-60
2021/04/07 02:02:25;;;;;;;;;12.00;9.00;;;;;-0.29;70.59;98703.25;3556004;40;9280;-60
2021/04/07 02:04:52;;;;;;;;;14.00;12.75;;;;;-0.50;71.72;98712.72;3556318;40;9997;-60
2021/04/07 02:07:18;;;;;;;;;9.25;8.00;;;;;-0.49;71.38;98710.94;3556060;40;9294;-60
2021/04/07 02:09:45;;;;;;;;;17.50;10.00;;;;;-0.48;70.72;98715.28;3549093;40;9246;-61
2021/04/07 02:12:13;;;;;;;;;10.75;7.50;;;;;-0.76;72.44;98708.28;3553933;40;9251;-60
2021/04/07 02:14:39;;;;;;;;;12.75;9.00;;;;;-0.57;71.93;98716.47;3555703;40;9448;-60
2021/04/07 02:17:07;;;;;;;;;15.75;10.00;;;;;-0.64;71.93;98711.44;3555908;40;10122;-60
2021/04/07 02:19:36;;;;;;;;;23.50;9.50;;;;;-0.55;70.53;98719.91;3551211;40;9250;-60
2021/04/07 02:22:10;;;;;;;;;9.50;9.50;;;;;-0.68;71.61;98711.53;3555054;40;9301;-61
2021/04/07 02:24:43;;;;;;;;;9.00;9.00;;;;;-0.90;72.59;98713.97;3554751;40;9271;-60
2021/04/07 02:27:18;;;;;;;;;13.00;9.50;;;;;-1.06;72.76;98719.75;3555502;40;9754;-60
2021/04/07 02:29:50;;;;;;;;;13.00;10.50;;;;;-1.06;72.56;98717.13;3555836;40;9247;-60
2021/04/07 02:32:19;;;;;;;;;14.00;10.25;;;;;-0.95;73.22;98720.28;3548222;40;9775;-60
2021/04/07 02:34:46;;;;;;;;;30.75;21.50;;;;;-1.08;73.63;98716.28;3549488;40;9351;-60
2021/04/07 02:37:16;;;;;;;;;93.00;72.00;;;;;-0.68;72.80;98714.16;3556265;40;9951;-60
2021/04/07 02:39:44;;;;;;;;;33.50;26.50;;;;;-0.94;72.37;98722.03;3554456;40;9281;-60
2021/04/07 02:42:12;;;;;;;;;33.00;27.50;;;;;-1.02;73.30;98724.88;3555825;40;9248;-60
2021/04/07 02:44:40;;;;;;;;;20.50;12.50;;;;;-1.09;73.22;98725.13;3546244;40;9270;-60
2021/04/07 02:47:10;;;;;;;;;25.50;19.25;;;;;-0.71;72.19;98723.91;3549776;40;9247;-61
2021/04/07 02:49:37;;;;;;;;;21.50;16.00;;;;;-0.78;72.42;98717.16;3556948;40;9251;-61
2021/04/07 02:52:06;;;;;;;;;13.50;8.75;;;;;-0.92;71.99;98723.69;3557301;40;9294;-60
2021/04/07 02:54:33;;;;;;;;;13.00;10.00;;;;;-0.86;72.46;98719.16;3556657;40;9298;-61
2021/04/07 02:57:04;;;;;;;;;18.25;11.00;;;;;-0.43;71.02;98725.69;3555941;40;9294;-60
2021/04/07 02:59:32;;;;;;;;;17.50;11.00;;;;;-0.46;70.83;98737.19;3560722;40;9241;-60
2021/04/07 03:01:59;;;;;;;;;15.75;10.50;;;;;-0.50;70.44;98732.91;3557714;40;9274;-60
2021/04/07 03:04:26;;;;;;;;;13.00;9.75;;;;;-0.46;70.44;98742.47;3556441;40;9294;-60
2021/04/07 03:06:53;;;;;;;;;24.75;17.50;;;;;-0.44;70.04;98745.94;3556854;40;9271;-60
2021/04/07 03:09:20;;;;;;;;;31.50;19.50;;;;;-0.74;71.02;98746.00;3556220;40;9475;-60
2021/04/07 03:11:47;;;;;;;;;21.50;14.75;;;;;-0.77;71.47;98755.75;3557172;40;9248;-60
2021/04/07 03:14:14;;;;;;;;;24.50;13.00;;;;;-0.73;71.52;98760.03;3557107;40;9428;-61
2021/04/07 03:16:41;;;;;;;;;18.75;13.00;;;;;-0.99;72.30;98760.81;3557456;40;9267;-60
2021/04/07 03:19:08;;;;;;;;;20.00;10.00;;;;;-0.94;72.79;98772.09;3557232;40;9270;-60
2021/04/07 03:21:34;;;;;;;;;19.00;12.25;;;;;-0.95;72.76;98767.69;3556877;40;9267;-60
2021/04/07 03:24:01;;;;;;;;;15.25;14.50;;;;;-0.94;72.07;98772.09;3557354;40;9400;-60
2021/04/07 03:26:29;;;;;;;;;21.50;14.50;;;;;-1.15;73.05;98770.94;3557475;40;9287;-60
2021/04/07 03:28:56;;;;;;;;;27.00;14.00;;;;;-1.03;73.31;98770.56;3557495;40;9271;-60
2021/04/07 03:31:23;;;;;;;;;29.25;23.50;;;;;-1.00;72.76;98781.03;3557143;40;9248;-60
2021/04/07 03:33:50;;;;;;;;;41.75;27.75;;;;;-1.16;73.29;98782.38;3557230;40;9283;-60
2021/04/07 03:36:16;;;;;;;;;20.50;18.00;;;;;-1.01;72.44;98783.69;3557210;40;9263;-60
2021/04/07 03:38:43;;;;;;;;;18.50;14.50;;;;;-0.81;71.84;98791.03;3556237;40;9251;-60
2021/04/07 03:41:10;;;;;;;;;12.75;10.75;;;;;-0.93;72.42;98801.00;3556931;40;9271;-60
2021/04/07 03:43:37;;;;;;;;;18.00;13.00;;;;;-1.05;73.18;98809.28;3556596;40;9294;-60
2021/04/07 03:46:04;;;;;;;;;21.50;12.75;;;;;-1.32;74.01;98800.38;3556508;40;9302;-60
2021/04/07 03:48:32;;;;;;;;;14.00;8.50;;;;;-1.39;74.10;98812.00;3557256;40;9267;-60
2021/04/07 03:51:00;;;;;;;;;21.75;15.00;;;;;-1.63;74.69;98806.47;3554629;40;9722;-60
2021/04/07 03:53:28;;;;;;;;;16.50;14.50;;;;;-1.77;75.22;98813.84;3555425;40;9262;-61
2021/04/07 03:55:57;;;;;;;;;14.00;10.00;;;;;-1.95;76.11;98825.72;3557135;40;9275;-61
2021/04/07 03:58:24;;;;;;;;;23.50;15.50;;;;;-2.12;77.41;98828.75;3556381;40;9251;-60
2021/04/07 04:00:52;;;;;;;;;12.75;11.50;;;;;-1.95;76.30;98835.38;3555297;40;9255;-60
2021/04/07 04:03:20;;;;;;;;;21.75;13.00;;;;;-2.20;76.65;98828.09;3556419;40;9432;-61
2021/04/07 04:05:47;;;;;;;;;31.25;16.00;;;;;-2.48;77.98;98835.75;3556801;40;9298;-60
2021/04/07 04:08:15;;;;;;;;;16.50;15.50;;;;;-2.17;77.12;98835.91;3557047;40;9251;-60
2021/04/07 04:10:42;;;;;;;;;20.75;15.50;;;;;-2.21;77.24;98839.53;3556816;40;9263;-60
2021/04/07 04:13:09;;;;;;;;;16.00;14.50;;;;;-2.12;76.79;98855.06;3557232;40;9440;-61
2021/04/07 04:15:36;;;;;;;;;24.50;13.00;;;;;-2.02;76.13;98853.09;3556738;40;9263;-60
2021/04/07 04:18:08;;;;;;;;;22.00;16.50;;;;;-2.14;77.11;98854.22;3557253;40;9259;-60
2021/04/07 04:20:35;;;;;;;;;16.75;13.75;;;;;-1.61;74.43;98852.03;3556271;40;9262;-61
2021/04/07 04:23:02;;;;;;;;;23.00;19.00;;;;;-2.05;76.97;98856.66;3557129;40;9270;-60
2021/04/07 04:25:29;;;;;;;;;27.50;19.50;;;;;-1.79;75.90;98855.13;3557016;40;9255;-61
2021/04/07 04:27:56;;;;;;;;;26.00;16.25;;;;;-2.25;76.71;98859.75;3556573;40;9256;-60
2021/04/07 04:30:26;;;;;;;;;17.75;15.25;;;;;-2.38;77.14;98857.44;3557092;40;9243;-60
2021/04/07 04:32:57;;;;;;;;;25.00;17.00;;;;;-2.19;76.85;98852.59;3557123;40;9251;-60
2021/04/07 04:35:23;;;;;;;;;38.00;24.25;;;;;-2.08;77.48;98864.63;3556238;40;9263;-61
2021/04/07 04:37:50;;;;;;;;;62.50;45.75;;;;;-2.12;76.85;98860.31;3557088;40;9491;-60
2021/04/07 04:40:18;;;;;;;;;77.00;50.50;;;;;-1.98;77.00;98860.84;3555927;40;9259;-60
2021/04/07 04:42:46;;;;;;;;;80.25;61.00;;;;;-1.86;76.81;98874.63;3556338;40;9275;-60
2021/04/07 04:45:14;;;;;;;;;56.00;45.00;;;;;-1.67;76.49;98878.50;3555855;40;9460;-61
2021/04/07 04:47:41;;;;;;;;;43.50;29.50;;;;;-1.60;76.33;98874.81;3556810;40;9248;-61
2021/04/07 04:50:10;;;;;;;;;27.25;20.50;;;;;-1.42;76.40;98880.50;3555473;40;9472;-60
2021/04/07 04:52:38;;;;;;;;;22.75;17.25;;;;;-0.59;73.22;98880.84;3557035;40;9263;-61
2021/04/07 04:55:07;;;;;;;;;24.00;16.50;;;;;1.73;63.89;98879.13;3556892;40;9275;-61
2021/04/07 04:57:35;;;;;;;;;21.25;18.25;;;;;1.23;64.14;98868.66;3556430;40;9239;-61
2021/04/07 05:00:05;;;;;;;;;37.25;28.25;;;;;0.47;66.26;98878.38;3556127;40;9275;-61
2021/04/07 05:02:32;;;;;;;;;33.75;26.00;;;;;-0.29;68.92;98882.59;3556024;40;9251;-61
2021/04/07 05:04:58;;;;;;;;;35.00;29.00;;;;;0.15;69.12;98877.66;3556603;40;9802;-61
2021/04/07 05:07:25;;;;;;;;;24.25;19.50;;;;;0.63;65.87;98887.53;3556687;40;9303;-61
2021/04/07 05:09:52;;;;;;;;;19.50;19.50;;;;;1.01;64.62;98887.94;3555716;40;9360;-61
2021/04/07 05:12:19;;;;;;;;;30.75;26.75;;;;;1.00;65.39;98891.53;3554969;40;9223;-61
2021/04/07 05:14:48;;;;;;;;;40.25;30.50;;;;;0.76;65.83;98887.09;3545198;40;9742;-61
2021/04/07 05:17:15;;;;;;;;;34.00;24.50;;;;;0.38;67.20;98892.75;3546407;40;9250;-61
2021/04/07 05:19:42;;;;;;;;;45.00;32.75;;;;;0.73;66.61;98900.41;3546147;40;9766;-61
2021/04/07 05:22:09;;;;;;;;;37.50;27.00;;;;;0.62;66.53;98901.63;3545864;40;9230;-61
2021/04/07 05:24:36;;;;;;;;;36.50;27.50;;;;;0.46;66.84;98899.56;3545792;40;9261;-61
2021/04/07 05:27:03;;;;;;;;;36.75;25.25;;;;;0.77;66.37;98894.13;3545993;40;9238;-61
2021/04/07 05:29:30;;;;;;;;;39.00;27.50;;;;;1.50;64.33;98907.31;3554292;40;9256;-61
2021/04/07 05:31:58;;;;;;;;;33.75;26.00;;;;;1.49;64.68;98908.22;3546924;40;9246;-61
2021/04/07 05:34:26;;;;;;;;;32.00;18.00;;;;;2.01;62.19;98899.22;3545654;40;9280;-61
2021/04/07 05:36:53;;;;;;;;;30.75;24.75;;;;;1.89;61.92;98906.69;3546088;40;9257;-61
2021/04/07 05:39:20;;;;;;;;;29.00;22.25;;;;;1.33;64.85;98920.28;3546410;40;9340;-61
2021/04/07 05:41:47;;;;;;;;;20.50;17.25;;;;;1.42;64.15;98909.41;3546202;40;9230;-60
2021/04/07 05:44:14;;;;;;;;;27.25;21.00;;;;;1.37;65.25;98921.94;3545628;40;9289;-61
2021/04/07 05:46:41;;;;;;;;;25.00;19.00;;;;;1.77;63.88;98919.56;3546390;40;9295;-61
2021/04/07 05:49:07;;;;;;;;;28.25;21.50;;;;;3.01;58.95;98917.16;3546275;40;9375;-61
2021/04/07 05:51:35;;;;;;;;;21.50;19.00;;;;;2.03;62.60;98915.88;3546299;40;9284;-60
2021/04/07 05:54:02;;;;;;;;;31.25;23.25;;;;;2.64;61.27;98924.03;3545709;40;9776;-61
2021/04/07 05:56:31;;;;;;;;;38.50;28.50;;;;;2.60;61.29;98925.06;3546116;40;9424;-61
2021/04/07 05:58:58;;;;;;;;;47.75;33.50;;;;;3.72;57.92;98929.00;3547165;40;9471;-61
2021/04/07 06:01:25;;;;;;;;;41.25;32.25;;;;;5.12;53.61;98926.66;3545815;40;9602;-61
2021/04/07 06:03:53;;;;;;;;;41.75;31.50;;;;;6.99;49.60;98929.69;3544883;40;10695;-61
2021/04/07 06:06:21;;;;;;;;;24.50;20.50;;;;;7.36;47.24;98935.50;3555281;40;10140;-61
2021/04/07 06:08:49;;;;;;;;;26.67;19.67;;;;;6.37;48.49;98935.91;3552633;40;10310;-61
2021/04/07 06:11:19;;;;;;;;;26.33;25.00;;;;;6.17;48.92;98938.81;3554852;40;10346;-61
2021/04/07 06:13:48;;;;;;;;;25.00;20.67;;;;;7.24;47.28;98937.94;3555287;40;10173;-62
2021/04/07 06:16:16;;;;;;;;;25.00;17.00;;;;;5.83;50.39;98945.97;3552777;40;10094;-62
2021/04/07 06:18:43;;;;;;;;;20.67;17.00;;;;;7.18;47.75;98948.97;3555146;40;10292;-62
2021/04/07 06:21:13;;;;;;;;;22.00;19.00;;;;;6.43;48.76;98947.16;3553811;40;10284;-62
2021/04/07 06:23:40;;;;;;;;;22.00;18.33;;;;;6.58;48.54;98943.59;3550514;40;10215;-62
2021/04/07 06:26:07;;;;;;;;;23.67;16.33;;;;;7.29;46.52;98947.47;3546711;40;10077;-62
2021/04/07 06:28:34;;;;;;;;;26.00;16.33;;;;;7.99;46.13;98953.00;3545877;40;10097;-62
2021/04/07 06:31:02;;;;;;;;;20.33;17.33;;;;;10.15;40.43;98953.72;3547001;40;10229;-62
2021/04/07 06:33:33;;;;;;;;;12.00;10.33;;;;;10.75;38.82;98959.16;3547171;40;10093;-62
2021/04/07 06:36:06;;;;;;;;;21.00;15.33;;;;;11.82;37.95;98965.38;3547385;40;10443;-59
2021/04/07 06:38:36;;;;;;;;;22.25;19.00;;;;;13.32;34.85;98968.50;3545926;40;10688;-60
2021/04/07 06:41:05;;;;;;;;;15.50;15.50;;;;;14.01;32.54;98976.09;3546841;40;14679;-60
2021/04/07 06:43:34;;;;;;;;;18.50;17.25;;;;;13.44;33.94;98980.97;3546856;40;14062;-62
2021/04/07 06:46:01;;;;;;;;;19.00;15.75;;;;;14.16;32.07;98971.19;3546752;40;14177;-61
2021/04/07 06:48:30;;;;;;;;;18.25;17.00;;;;;12.22;33.92;98967.66;3546547;40;14136;-61
2021/04/07 06:50:57;;;;;;;;;18.50;17.25;;;;;7.95;43.80;98973.69;3552673;40;14074;-61
2021/04/07 06:53:28;;;;;;;;;17.67;17.33;;;;;5.49;49.82;98978.84;3555793;40;14106;-60
2021/04/07 06:55:55;;;;;;;;;22.33;18.33;;;;;5.29;50.19;98979.88;3556262;40;9994;-60
2021/04/07 06:58:22;;;;;;;;;25.00;22.33;;;;;4.96;52.22;98980.66;3555851;40;10000;-60
2021/04/07 07:00:49;;;;;;;;;17.33;17.00;;;;;5.02;51.64;98980.34;3546504;40;10440;-61
2021/04/07 07:03:19;;;;;;;;;20.00;17.67;;;;;5.03;51.76;98983.88;3546518;40;10277;-60
2021/04/07 07:05:51;;;;;;;;;17.33;12.00;;;;;4.89;51.39;98984.53;3555285;40;10251;-60
2021/04/07 07:08:38;;;;;;;;;14.67;13.33;;;;;5.05;49.65;98980.22;3557429;40;10158;-61
2021/04/07 07:11:14;;;;;;;;;22.67;16.33;;;;;5.30;49.32;98983.41;3557477;40;10128;-60
2021/04/07 07:13:42;;;;;;;;;23.00;20.00;;;;;5.11;51.49;98986.13;3556600;40;10738;-60
2021/04/07 07:16:11;;;;;;;;;17.00;15.67;;;;;5.62;49.43;98987.91;3564471;40;10176;-60
2021/04/07 07:18:43;;;;;;;;;21.67;17.00;;;;;5.60;50.29;98992.44;3556875;40;10142;-61
2021/04/07 07:21:17;;;;;;;;;21.00;19.00;;;;;6.20;47.34;98991.94;3557218;40;10230;-60
2021/04/07 07:23:47;;;;;;;;;13.00;10.00;;;;;12.36;36.01;98986.22;3557009;40;9999;-60
2021/04/07 07:26:17;;;;;;;;;20.00;13.00;;;;;12.49;34.65;98986.97;3556901;40;10752;-60
2021/04/07 07:28:54;;;;;;;;;20.75;16.75;;;;;13.04;32.25;98986.97;3551255;40;14130;-60
2021/04/07 07:31:31;;;;;;;;;19.00;15.00;;;;;6.97;42.61;98988.47;3557407;40;9905;-60
2021/04/07 07:34:00;;;;;;;;;20.33;14.00;;;;;6.36;44.52;98997.28;3556476;40;10009;-60
2021/04/07 07:36:34;;;;;;;;;17.67;14.00;;;;;5.75;46.71;99000.59;3557123;40;10052;-62
2021/04/07 07:39:03;;;;;;;;;15.00;14.00;;;;;5.82;46.93;98997.53;3556632;40;10122;-61
2021/04/07 07:41:36;;;;;;;;;21.67;13.00;;;;;5.82;45.79;98997.53;3557264;40;10309;-60
2021/04/07 07:44:20;;;;;;;;;17.67;13.00;;;;;6.32;45.94;98995.75;3556496;40;10239;-61
2021/04/07 07:46:58;;;;;;;;;18.67;15.67;;;;;6.23;45.59;99004.25;3556476;40;10226;-62
2021/04/07 07:49:26;;;;;;;;;18.67;14.67;;;;;6.79;43.17;99005.53;3557439;40;10371;-62
2021/04/07 07:51:53;;;;;;;;;17.67;13.33;;;;;6.48;42.81;99017.09;3557314;40;10160;-61
2021/04/07 07:54:22;;;;;;;;;17.67;15.33;;;;;6.14;42.91;99008.28;3556648;40;10214;-62
2021/04/07 07:56:52;;;;;;;;;16.33;10.67;;;;;6.52;41.62;99013.31;3557082;40;10025;-62
2021/04/07 07:59:34;;;;;;;;;19.00;15.00;;;;;7.44;42.40;99013.31;3553575;40;10107;-61
2021/04/07 08:02:00;;;;;;;;;19.00;11.67;;;;;6.80;40.75;99018.81;3547290;40;10280;-62
2021/04/07 08:04:30;;;;;;;;;23.00;13.67;;;;;7.04;42.92;99023.69;3546778;40;10054;-62
2021/04/07 08:06:58;;;;;;;;;18.33;15.00;;;;;7.12;41.57;99018.75;3555115;40;10063;-62
2021/04/07 08:09:26;;;;;;;;;16.33;14.33;;;;;7.25;42.67;99025.09;3556987;40;10148;-62
2021/04/07 08:11:54;;;;;;;;;13.33;12.67;;;;;7.02;43.08;99028.25;3556838;40;10615;-62
2021/04/07 08:14:22;;;;;;;;;17.00;11.67;;;;;6.98;41.56;99030.25;3555850;40;9979;-61
2021/04/07 08:16:49;;;;;;;;;14.67;13.67;;;;;8.19;40.36;99026.59;3555709;40;10162;-61
2021/04/07 08:19:16;;;;;;;;;13.67;11.67;;;;;7.63;39.84;99035.31;3555238;40;10747;-61
2021/04/07 08:21:46;;;;;;;;;16.33;11.33;;;;;7.57;41.65;99035.69;3556818;40;10484;-61
2021/04/07 08:24:14;;;;;;;;;16.33;14.00;;;;;7.31;41.47;99044.38;3557008;40;10051;-61
2021/04/07 08:26:44;;;;;;;;;15.00;10.00;;;;;7.79;40.30;99045.06;3554803;40;9995;-61
2021/04/07 08:29:11;;;;;;;;;15.33;10.67;;;;;7.92;41.18;99043.38;3556318;40;9997;-61
2021/04/07 08:31:39;;;;;;;;;19.33;13.33;;;;;7.94;40.60;99046.81;3557025;40;9862;-61
2021/04/07 08:34:11;;;;;;;;;14.33;11.00;;;;;6.90;42.27;99042.28;3556091;40;10025;-61
2021/04/07 08:36:43;;;;;;;;;11.67;10.00;;;;;6.57;41.38;99044.09;3555231;40;10224;-61
2021/04/07 08:39:13;;;;;;;;;17.33;10.00;;;;;6.17;42.18;99044.56;3556362;40;10193;-61
2021/04/07 08:41:41;;;;;;;;;14.00;13.33;;;;;6.10;42.25;99054.69;3556780;40;10105;-61
2021/04/07 08:44:11;;;;;;;;;13.33;9.33;;;;;6.57;40.42;99048.56;3555918;40;10681;-61
2021/04/07 08:46:59;;;;;;;;;11.33;10.00;;;;;7.49;41.03;99059.31;3556127;40;10632;-61
2021/04/07 08:49:41;;;;;;;;;10.67;7.67;;;;;8.11;38.83;99052.00;3556736;40;10250;-61
2021/04/07 08:52:22;;;;;;;;;33.33;23.33;;;;;8.51;38.42;99048.69;3556597;40;10150;-61
2021/04/07 08:54:59;;;;;;;;;18.00;14.33;;;;;8.03;39.12;99043.59;3556864;40;9990;-62
2021/04/07 08:57:37;;;;;;;;;9.67;9.67;;;;;7.19;37.36;99057.50;3546687;40;11272;-61
2021/04/07 09:00:15;;;;;;;;;10.00;10.00;;;;;8.04;36.22;99055.16;3552713;40;10385;-61
2021/04/07 09:02:54;;;;;;;;;9.67;6.67;;;;;7.95;35.88;99055.69;3556510;40;10078;-60
2021/04/07 09:05:37;;;;;;;;;9.00;9.00;;;;;8.67;35.10;99060.13;3556615;40;9909;-61
2021/04/07 09:08:06;;;;;;;;;10.67;6.00;;;;;8.88;35.10;99065.06;3556773;40;9961;-61
2021/04/07 09:10:55;;;;;;;;;8.67;8.67;;;;;8.83;34.06;99060.00;3556393;40;10267;-62
2021/04/07 09:13:37;;;;;;;;;11.33;8.00;;;;;8.11;36.84;99057.34;3556105;40;10414;-61
2021/04/07 09:16:09;;;;;;;;;9.33;7.33;;;;;8.95;36.28;99064.56;3555081;40;9854;-61
2021/04/07 09:18:41;;;;;;;;;9.00;6.00;;;;;8.83;35.19;99062.69;3556810;40;10052;-62
2021/04/07 09:21:20;;;;;;;;;8.33;7.67;;;;;8.29;34.97;99050.00;3556314;40;9862;-61
2021/04/07 09:23:58;;;;;;;;;5.00;5.00;;;;;8.42;34.54;99063.47;3552211;40;9862;-61
2021/04/07 09:26:28;;;;;;;;;3.00;3.00;;;;;7.99;34.25;99058.09;3549126;40;9877;-61
2021/04/07 09:28:56;;;;;;;;;3.00;2.00;;;;;8.63;31.71;99063.09;3548833;40;10051;-61
2021/04/07 09:31:33;;;;;;;;;7.00;3.00;;;;;8.71;31.77;99060.78;3551633;40;10380;-61
2021/04/07 09:34:01;;;;;;;;;7.67;6.00;;;;;8.50;32.44;99052.31;3550464;40;10032;-61
2021/04/07 09:36:33;;;;;;;;;9.33;5.00;;;;;8.93;34.00;99054.91;3549026;40;10241;-62
2021/04/07 09:39:03;;;;;;;;;7.00;7.00;;;;;9.24;33.98;99051.06;3550628;40;10255;-61
2021/04/07 09:41:36;;;;;;;;;8.00;6.67;;;;;8.65;34.40;99056.69;3554944;40;9878;-61
2021/04/07 09:44:05;;;;;;;;;12.67;8.00;;;;;9.24;33.93;99056.41;3556574;40;9856;-62
2021/04/07 09:46:33;;;;;;;;;11.33;7.67;;;;;10.19;34.45;99060.69;3556516;40;10105;-61
2021/04/07 09:49:08;;;;;;;;;7.25;7.25;;;;;9.17;35.04;99053.31;3556525;40;10585;-61
2021/04/07 09:51:44;;;;;;;;;13.67;11.00;;;;;7.89;35.52;99070.28;3555240;40;14614;-62
2021/04/07 09:54:31;;;;;;;;;16.00;9.67;;;;;7.52;37.95;99074.31;3556213;40;9878;-60
2021/04/07 09:57:08;;;;;;;;;10.00;6.67;;;;;8.15;35.52;99068.72;3556082;40;10166;-61
2021/04/07 09:59:55;;;;;;;;;9.67;8.33;;;;;9.43;36.66;99070.31;3556361;40;9914;-60
2021/04/07 10:02:28;;;;;;;;;12.00;8.00;;;;;9.12;35.38;99066.13;3550898;40;10269;-61
2021/04/07 10:05:07;;;;;;;;;11.33;9.33;;;;;8.32;35.10;99056.94;3555721;40;9982;-61
2021/04/07 10:07:35;;;;;;;;;11.00;6.33;;;;;8.64;34.83;99070.19;3556386;40;9791;-61
2021/04/07 10:10:02;;;;;;;;;8.33;7.00;;;;;8.81;34.00;99075.28;3556659;40;9819;-61
2021/04/07 10:12:34;;;;;;;;;14.00;8.33;;;;;8.33;34.57;99074.75;3556407;40;9858;-60
2021/04/07 10:15:04;;;;;;;;;8.67;6.00;;;;;9.77;34.06;99069.84;3556481;40;9867;-61
2021/04/07 10:17:34;;;;;;;;;10.33;8.00;;;;;9.08;32.78;99075.31;3555524;40;10019;-61
2021/04/07 10:20:10;;;;;;;;;12.67;8.00;;;;;9.34;33.61;99086.16;3556470;40;10746;-61
2021/04/07 10:22:38;;;;;;;;;10.33;7.00;;;;;8.01;34.60;99082.06;3556592;40;9849;-60
2021/04/07 10:25:19;;;;;;;;;12.00;10.00;;;;;7.44;35.57;99094.31;3555793;40;9863;-61
2021/04/07 10:27:46;;;;;;;;;7.00;7.00;;;;;8.20;34.19;99093.34;3554976;40;9969;-62
2021/04/07 10:30:21;;;;;;;;;7.67;7.00;;;;;9.00;34.29;99093.69;3556087;40;10301;-60
2021/04/07 10:32:58;;;;;;;;;9.67;8.33;;;;;8.98;33.19;99090.28;3555403;40;9948;-60
2021/04/07 10:35:33;;;;;;;;;11.00;9.33;;;;;7.93;34.29;99089.69;3554300;40;10364;-60
2021/04/07 10:38:05;;;;;;;;;12.00;8.33;;;;;8.24;33.72;99094.91;3562298;40;9924;-60
2021/04/07 10:40:34;;;;;;;;;10.67;9.33;;;;;7.97;33.51;99094.75;3554551;40;9897;-60
2021/04/07 10:43:19;;;;;;;;;10.67;8.33;;;;;8.99;33.76;99095.53;3555236;40;9917;-60
2021/04/07 10:46:07;;;;;;;;;8.00;7.33;;;;;9.24;33.48;99088.56;3555562;40;9880;-60
2021/04/07 10:48:36;;;;;;;;;6.00;6.00;;;;;9.11;33.76;99085.84;3546785;40;9874;-59
2021/04/07 10:51:05;;;;;;;;;10.33;7.33;;;;;10.28;34.07;99088.72;3546569;40;10232;-60
2021/04/07 10:53:36;;;;;;;;;7.75;7.00;;;;;9.33;31.87;99093.34;3554764;40;10658;-61
2021/04/07 10:56:20;;;;;;;;;11.33;8.67;;;;;10.68;32.99;99096.63;3545184;40;14055;-60
2021/04/07 10:59:00;;;;;;;;;10.75;8.00;;;;;10.33;30.53;99098.16;3547257;40;11490;-60
2021/04/07 11:01:37;;;;;;;;;11.00;8.00;;;;;10.11;30.29;99104.13;3556015;40;10800;-61
2021/04/07 11:04:17;;;;;;;;;6.75;6.00;;;;;9.65;29.04;99091.19;3554864;40;14069;-61
2021/04/07 11:06:45;;;;;;;;;7.00;7.00;;;;;10.64;29.05;99095.16;3554817;40;14789;-61
2021/04/07 11:09:14;;;;;;;;;5.75;5.75;;;;;10.03;29.99;99094.88;3555226;40;14066;-61
2021/04/07 11:11:44;;;;;;;;;15.00;12.00;;;;;9.50;32.59;99110.09;3556802;40;14030;-61
2021/04/07 11:14:11;;;;;;;;;17.67;14.33;;;;;8.08;34.03;99115.47;3555977;40;10179;-60
2021/04/07 11:16:39;;;;;;;;;21.00;15.33;;;;;8.60;33.55;99122.16;3556963;40;10239;-60
2021/04/07 11:19:16;;;;;;;;;11.00;10.00;;;;;9.25;32.33;99124.28;3557456;40;9834;-61
2021/04/07 11:21:44;;;;;;;;;7.33;7.00;;;;;9.30;31.53;99112.28;3557054;40;9908;-61
2021/04/07 11:24:11;;;;;;;;;10.67;8.00;;;;;9.23;30.06;99121.69;3550600;40;10106;-60
2021/04/07 11:26:38;;;;;;;;;11.00;7.33;;;;;8.82;30.73;99117.19;3556431;40;11427;-61
2021/04/07 11:29:07;;;;;;;;;11.33;7.33;;;;;9.56;31.61;99128.47;3555697;40;10024;-61
2021/04/07 11:31:35;;;;;;;;;9.33;7.00;;;;;9.53;31.08;99115.25;3557256;40;11054;-60
2021/04/07 11:34:06;;;;;;;;;7.67;5.33;;;;;10.45;30.73;99117.94;3556833;40;10566;-61
2021/04/07 11:37:02;;;;;;;;;6.33;6.00;;;;;9.80;30.60;99116.09;3556087;40;10480;-60
2021/04/07 11:44:38;;;;;;;;;15.67;10.00;;;;;8.00;34.94;99134.66;3557233;40;9965;-59
2021/04/07 11:47:05;;;;;;;;;16.33;10.00;;;;;7.99;34.77;99143.63;3556347;40;10032;-60